createdAt,value
2023-08-13T00:02:26.730Z,4.90
2023-08-13T00:04:54.824Z,4.40
2023-08-13T00:07:22.828Z,4.00
2023-08-13T00:09:50.536Z,3.90
2023-08-13T00:12:18.136Z,3.90
2023-08-13T00:14:45.677Z,4.40
2023-08-13T00:17:13.507Z,5.80
2023-08-13T00:19:41.277Z,4.70
2023-08-13T00:22:08.980Z,7.00
2023-08-13T00:24:36.704Z,3.50
2023-08-13T00:27:04.490Z,5.50
2023-08-13T00:29:34.451Z,5.50
2023-08-13T00:32:02.411Z,6.20
2023-08-13T00:34:30.067Z,5.90
2023-08-13T00:36:57.619Z,6.50
2023-08-13T00:39:25.352Z,7.10
2023-08-13T00:41:54.367Z,4.70
2023-08-13T00:44:22.133Z,4.60
2023-08-13T00:46:49.988Z,8.80
2023-08-13T00:49:17.634Z,4.10
2023-08-13T00:51:45.198Z,5.70
2023-08-13T00:54:12.827Z,7.00
2023-08-13T00:56:41.570Z,4.90
2023-08-13T00:59:09.097Z,4.40
2023-08-13T01:01:37.226Z,4.60
2023-08-13T01:04:05.459Z,6.80
2023-08-13T01:06:44.974Z,5.10
2023-08-13T01:09:36.137Z,4.90
2023-08-13T01:12:06.971Z,4.40
2023-08-13T01:14:43.369Z,6.00
2023-08-13T01:17:10.992Z,7.60
2023-08-13T01:19:39.106Z,4.30
2023-08-13T01:22:06.674Z,5.50
2023-08-13T01:24:34.340Z,5.10
2023-08-13T01:27:11.114Z,5.10
2023-08-13T01:30:04.540Z,5.60
2023-08-13T01:32:35.151Z,5.30
2023-08-13T01:35:02.761Z,7.60
2023-08-13T01:37:30.521Z,5.80
2023-08-13T01:39:58.127Z,7.80
2023-08-13T01:42:26.297Z,7.80
2023-08-13T01:44:54.424Z,4.50
2023-08-13T01:47:21.996Z,6.80
2023-08-13T01:49:50.473Z,8.80
2023-08-13T01:52:18.063Z,7.90
2023-08-13T01:54:45.708Z,8.60
2023-08-13T01:57:13.954Z,7.00
2023-08-13T01:59:41.577Z,8.10
2023-08-13T02:02:09.239Z,8.80
2023-08-13T02:04:38.097Z,8.20
2023-08-13T02:07:05.999Z,6.90
2023-08-13T02:09:33.624Z,5.90
2023-08-13T02:12:01.806Z,7.80
2023-08-13T02:14:29.462Z,7.40
2023-08-13T02:16:57.172Z,6.30
2023-08-13T02:19:24.994Z,8.30
2023-08-13T02:21:52.686Z,9.90
2023-08-13T02:24:20.417Z,6.70
2023-08-13T02:26:47.948Z,5.30
2023-08-13T02:29:15.585Z,6.60
2023-08-13T02:31:43.128Z,7.60
2023-08-13T02:34:12.102Z,5.80
2023-08-13T02:36:39.704Z,6.50
2023-08-13T02:39:07.343Z,6.70
2023-08-13T02:41:34.924Z,6.20
2023-08-13T02:44:02.554Z,7.80
2023-08-13T02:46:30.337Z,7.70
2023-08-13T02:48:57.935Z,11.40
2023-08-13T02:51:27.043Z,8.80
2023-08-13T02:53:54.652Z,5.30
2023-08-13T02:56:22.339Z,5.00
2023-08-13T02:58:49.969Z,8.20
2023-08-13T03:01:17.620Z,7.40
2023-08-13T03:03:51.950Z,6.40
2023-08-13T03:06:21.953Z,6.60
2023-08-13T03:08:49.548Z,6.90
2023-08-13T03:11:17.364Z,5.70
2023-08-13T03:13:45.457Z,9.10
2023-08-13T03:16:13.315Z,5.80
2023-08-13T03:18:41.891Z,4.90
2023-08-13T03:21:11.512Z,7.80
2023-08-13T03:23:39.165Z,7.50
2023-08-13T03:26:06.726Z,7.10
2023-08-13T03:28:34.512Z,5.40
2023-08-13T03:31:08.836Z,5.30
2023-08-13T03:34:15.104Z,6.50
2023-08-13T03:36:42.766Z,9.50
2023-08-13T03:39:10.298Z,5.50
2023-08-13T03:41:38.127Z,5.70
2023-08-13T03:44:06.604Z,6.90
2023-08-13T03:46:34.152Z,6.70
2023-08-13T03:49:01.815Z,7.00
2023-08-13T03:51:29.453Z,5.10
2023-08-13T03:53:57.200Z,6.00
2023-08-13T03:56:26.400Z,4.70
2023-08-13T03:58:53.991Z,4.60
2023-08-13T04:01:21.837Z,5.60
2023-08-13T04:03:50.192Z,3.90
2023-08-13T04:06:17.770Z,5.90
2023-08-13T04:08:45.378Z,4.40
2023-08-13T04:11:13.018Z,4.60
2023-08-13T04:13:40.588Z,4.50
2023-08-13T04:16:08.303Z,4.50
2023-08-13T04:18:36.439Z,5.10
2023-08-13T04:21:04.062Z,4.50
2023-08-13T04:23:31.701Z,4.30
2023-08-13T04:25:59.354Z,4.30
2023-08-13T04:28:27.464Z,4.60
2023-08-13T04:30:55.147Z,4.70
2023-08-13T04:33:22.866Z,5.30
2023-08-13T04:35:54.942Z,4.70
2023-08-13T04:38:23.063Z,4.50
2023-08-13T04:40:50.945Z,4.40
2023-08-13T04:43:18.840Z,5.00
2023-08-13T04:45:47.771Z,3.90
2023-08-13T04:48:19.721Z,6.30
2023-08-13T04:50:49.076Z,4.40
2023-08-13T04:53:16.621Z,4.10
2023-08-13T04:55:44.554Z,5.70
2023-08-13T04:58:12.534Z,4.50
2023-08-13T05:00:40.121Z,4.20
2023-08-13T05:03:07.720Z,8.40
2023-08-13T05:05:35.538Z,3.60
2023-08-13T05:08:03.192Z,4.60
2023-08-13T05:10:30.968Z,4.00
2023-08-13T05:12:58.569Z,6.50
2023-08-13T05:15:26.719Z,6.20
2023-08-13T05:17:54.446Z,3.90
2023-08-13T05:20:22.207Z,4.10
2023-08-13T05:22:49.770Z,5.70
2023-08-13T05:25:17.336Z,6.30
2023-08-13T05:27:45.163Z,4.40
2023-08-13T05:30:13.846Z,4.50
2023-08-13T05:32:42.176Z,5.30
2023-08-13T05:35:10.166Z,4.00
2023-08-13T05:37:37.739Z,4.40
2023-08-13T05:40:06.373Z,5.30
2023-08-13T05:42:34.034Z,4.00
2023-08-13T05:45:01.808Z,4.10
2023-08-13T05:47:29.504Z,4.50
2023-08-13T05:49:57.269Z,5.80
2023-08-13T05:52:25.739Z,4.60
2023-08-13T05:54:53.312Z,4.60
2023-08-13T05:57:20.940Z,3.80
2023-08-13T05:59:48.492Z,4.50
2023-08-13T06:02:16.378Z,4.50
2023-08-13T06:04:44.212Z,5.90
2023-08-13T06:07:11.806Z,4.40
2023-08-13T06:09:39.534Z,4.40
2023-08-13T06:12:08.114Z,4.90
2023-08-13T06:14:35.673Z,4.10
2023-08-13T06:17:13.746Z,5.30
2023-08-13T06:19:44.065Z,4.70
2023-08-13T06:22:12.330Z,4.70
2023-08-13T06:24:40.555Z,4.50
2023-08-13T06:27:08.184Z,5.40
2023-08-13T06:29:35.741Z,6.10
2023-08-13T06:32:03.451Z,4.60
2023-08-13T06:34:31.061Z,5.80
2023-08-13T06:36:58.595Z,4.70
2023-08-13T06:39:26.140Z,6.40
2023-08-13T06:41:53.826Z,4.10
2023-08-13T06:44:26.803Z,5.40
2023-08-13T06:46:54.359Z,5.00
2023-08-13T06:49:21.936Z,4.30
2023-08-13T06:51:49.496Z,4.60
2023-08-13T06:54:17.088Z,5.10
2023-08-13T06:56:44.745Z,4.00
2023-08-13T06:59:12.496Z,4.20
2023-08-13T07:01:40.168Z,4.20
2023-08-13T07:04:08.184Z,5.10
2023-08-13T07:06:36.049Z,4.20
2023-08-13T07:09:04.966Z,3.80
2023-08-13T07:11:37.485Z,4.30
2023-08-13T07:14:05.223Z,3.80
2023-08-13T07:16:33.427Z,3.60
2023-08-13T07:19:01.116Z,4.30
2023-08-13T07:21:28.809Z,3.80
2023-08-13T07:23:56.554Z,3.00
2023-08-13T07:26:24.174Z,3.50
2023-08-13T07:28:51.888Z,4.20
2023-08-13T07:31:20.992Z,3.70
2023-08-13T07:33:49.101Z,3.80
2023-08-13T07:36:16.921Z,3.60
2023-08-13T07:38:44.785Z,4.00
2023-08-13T07:41:12.332Z,4.70
2023-08-13T07:43:39.953Z,4.30
2023-08-13T07:46:07.635Z,3.90
2023-08-13T07:48:35.297Z,3.30
2023-08-13T07:51:02.909Z,4.80
2023-08-13T07:53:31.344Z,3.40
2023-08-13T07:55:58.992Z,3.20
2023-08-13T07:58:26.605Z,2.70
2023-08-13T08:00:54.430Z,3.30
2023-08-13T08:03:24.244Z,3.90
2023-08-13T08:08:20.739Z,3.00
2023-08-13T08:10:48.364Z,3.60
2023-08-13T08:13:15.958Z,3.70
2023-08-13T08:15:43.536Z,3.70
2023-08-13T08:18:11.167Z,4.20
2023-08-13T08:20:38.904Z,4.60
2023-08-13T08:23:06.475Z,4.70
2023-08-13T08:25:34.054Z,4.30
2023-08-13T08:28:01.682Z,3.20
2023-08-13T08:30:29.410Z,3.40
2023-08-13T08:32:57.075Z,3.00
2023-08-13T08:35:24.738Z,3.30
2023-08-13T08:37:52.345Z,4.00
2023-08-13T08:40:20.103Z,4.30
2023-08-13T08:42:47.757Z,3.90
2023-08-13T08:45:15.336Z,3.50
2023-08-13T08:47:43.213Z,4.60
2023-08-13T08:50:12.775Z,4.40
2023-08-13T08:52:40.713Z,4.20
2023-08-13T08:55:13.069Z,3.80
2023-08-13T08:57:40.713Z,3.40
2023-08-13T09:00:09.713Z,3.90
2023-08-13T09:02:40.891Z,2.90
2023-08-13T09:05:08.933Z,4.10
2023-08-13T09:07:36.579Z,3.70
2023-08-13T09:10:04.649Z,3.80
2023-08-13T09:12:39.213Z,3.90
2023-08-13T09:15:11.292Z,4.70
2023-08-13T09:17:39.436Z,2.90
2023-08-13T09:20:20.429Z,3.20
2023-08-13T09:22:48.626Z,3.10
2023-08-13T09:25:16.406Z,3.50
2023-08-13T09:27:44.244Z,3.40
2023-08-13T09:30:13.513Z,3.10
2023-08-13T09:32:42.775Z,4.00
2023-08-13T09:35:10.647Z,3.80
2023-08-13T09:37:38.520Z,4.10
2023-08-13T09:40:07.354Z,4.30
2023-08-13T09:42:35.001Z,3.00
2023-08-13T09:45:14.233Z,2.80
2023-08-13T09:47:42.685Z,3.10
2023-08-13T09:50:10.727Z,3.00
2023-08-13T09:52:38.265Z,3.20
2023-08-13T09:55:14.198Z,3.90
2023-08-13T09:57:42.559Z,4.30
2023-08-13T10:00:11.319Z,3.60
2023-08-13T10:02:42.015Z,2.90
2023-08-13T10:05:10.205Z,3.00
2023-08-13T10:07:37.854Z,2.60
2023-08-13T10:10:08.622Z,4.20
2023-08-13T10:12:36.993Z,3.10
2023-08-13T10:15:04.959Z,2.70
2023-08-13T10:17:32.512Z,3.30
2023-08-13T10:20:00.187Z,3.50
2023-08-13T10:22:37.532Z,3.50
2023-08-13T10:25:08.115Z,3.20
2023-08-13T10:27:36.954Z,3.00
2023-08-13T10:30:11.952Z,3.60
2023-08-13T10:32:59.899Z,2.90
2023-08-13T10:35:39.044Z,3.40
2023-08-13T10:38:09.248Z,4.20
2023-08-13T10:40:38.252Z,5.50
2023-08-13T10:43:05.876Z,3.40
2023-08-13T10:45:37.330Z,3.40
2023-08-13T10:48:08.460Z,3.80
2023-08-13T10:50:45.311Z,3.40
2023-08-13T10:53:27.374Z,4.30
2023-08-13T10:55:56.294Z,3.40
2023-08-13T10:58:27.576Z,4.10
2023-08-13T11:01:21.990Z,4.70
2023-08-13T11:03:53.959Z,2.90
2023-08-13T11:06:22.067Z,4.00
2023-08-13T11:08:49.742Z,3.40
2023-08-13T11:11:17.873Z,3.80
2023-08-13T11:13:46.584Z,5.90
2023-08-13T11:16:14.442Z,4.50
2023-08-13T11:18:42.122Z,3.50
2023-08-13T11:21:09.963Z,3.10
2023-08-13T11:23:37.541Z,3.00
2023-08-13T11:26:06.290Z,3.50
2023-08-13T11:28:34.135Z,2.80
2023-08-13T11:31:01.724Z,3.40
2023-08-13T11:33:29.582Z,4.70
2023-08-13T11:35:57.810Z,5.00
2023-08-13T11:38:25.909Z,4.80
2023-08-13T11:40:53.595Z,3.30
2023-08-13T11:43:21.314Z,6.00
2023-08-13T11:45:50.726Z,3.90
2023-08-13T11:48:22.450Z,4.70
2023-08-13T11:51:01.681Z,4.20
2023-08-13T11:53:46.808Z,4.10
2023-08-13T11:56:15.240Z,3.70
2023-08-13T11:58:43.012Z,4.90
2023-08-13T12:01:12.520Z,3.40
2023-08-13T12:03:42.516Z,3.90
2023-08-13T12:06:10.156Z,4.20
2023-08-13T12:08:38.164Z,3.30
2023-08-13T12:11:07.029Z,5.00
2023-08-13T12:13:41.185Z,3.50
2023-08-13T12:16:08.815Z,5.70
2023-08-13T12:18:36.358Z,3.60
2023-08-13T12:21:04.098Z,4.60
2023-08-13T12:23:31.710Z,3.40
2023-08-13T12:26:02.792Z,4.00
2023-08-13T12:28:30.469Z,3.60
2023-08-13T12:30:58.116Z,3.60
2023-08-13T12:33:25.907Z,3.70
2023-08-13T12:35:53.643Z,3.50
2023-08-13T12:38:21.209Z,3.70
2023-08-13T12:40:48.753Z,3.90
2023-08-13T12:43:16.491Z,4.30
2023-08-13T12:45:44.056Z,4.20
2023-08-13T12:48:11.649Z,4.50
2023-08-13T12:50:39.230Z,4.70
2023-08-13T12:53:06.779Z,5.00
2023-08-13T12:55:34.772Z,6.00
2023-08-13T12:58:02.692Z,3.90
2023-08-13T13:00:30.251Z,3.20
2023-08-13T13:02:57.815Z,3.90
2023-08-13T13:05:25.459Z,3.10
2023-08-13T13:07:53.027Z,4.10
2023-08-13T13:10:20.583Z,4.90
2023-08-13T13:12:48.171Z,4.30
2023-08-13T13:15:15.833Z,3.50
2023-08-13T13:17:43.445Z,5.70
2023-08-13T13:20:14.412Z,4.30
2023-08-13T13:22:42.335Z,4.30
2023-08-13T13:25:13.155Z,3.70
2023-08-13T13:27:43.624Z,5.80
2023-08-13T13:30:12.912Z,3.90
2023-08-13T13:32:40.788Z,4.50
2023-08-13T13:35:08.973Z,6.10
2023-08-13T13:37:36.639Z,4.10
2023-08-13T13:40:05.191Z,4.10
2023-08-13T13:42:32.849Z,3.80
2023-08-13T13:45:00.426Z,4.20
2023-08-13T13:47:28.882Z,3.40
2023-08-13T13:49:56.482Z,3.90
2023-08-13T13:52:24.129Z,3.90
2023-08-13T13:54:55.463Z,4.10
2023-08-13T13:57:25.211Z,5.10
2023-08-13T13:59:52.777Z,5.70
2023-08-13T14:02:20.331Z,3.50
2023-08-13T14:04:48.072Z,4.00
2023-08-13T14:07:15.757Z,5.60
2023-08-13T14:09:43.331Z,4.00
2023-08-13T14:12:10.953Z,4.00
2023-08-13T14:14:38.532Z,4.50
2023-08-13T14:17:06.295Z,3.90
2023-08-13T14:19:33.979Z,4.10
2023-08-13T14:22:01.619Z,3.50
2023-08-13T14:24:29.189Z,5.10
2023-08-13T14:26:56.908Z,4.10
2023-08-13T14:29:24.470Z,6.20
2023-08-13T14:31:52.493Z,4.20
2023-08-13T14:34:20.185Z,5.40
2023-08-13T14:36:47.786Z,3.70
2023-08-13T14:39:15.668Z,3.50
2023-08-13T14:41:43.280Z,4.70
2023-08-13T14:44:10.824Z,3.50
2023-08-13T14:46:38.402Z,4.10
2023-08-13T14:49:06.049Z,3.50
2023-08-13T14:51:33.661Z,4.60
2023-08-13T14:54:01.203Z,4.20
2023-08-13T14:56:28.856Z,5.10
2023-08-13T14:58:56.479Z,3.70
2023-08-13T15:01:24.118Z,4.10
2023-08-13T15:03:52.781Z,4.50
2023-08-13T15:06:20.403Z,4.80
2023-08-13T15:08:48.344Z,4.30
2023-08-13T15:11:15.975Z,5.60
2023-08-13T15:13:43.532Z,4.80
2023-08-13T15:16:11.164Z,5.50
2023-08-13T15:18:40.066Z,4.90
2023-08-13T15:21:09.606Z,5.30
2023-08-13T15:23:37.915Z,5.40
2023-08-13T15:26:05.699Z,6.30
2023-08-13T15:28:34.007Z,4.80
2023-08-13T15:31:02.245Z,9.70
2023-08-13T15:33:29.977Z,5.60
2023-08-13T15:35:58.371Z,4.80
2023-08-13T15:38:28.707Z,4.30
2023-08-13T15:40:56.364Z,4.80
2023-08-13T15:43:24.047Z,5.00
2023-08-13T15:45:51.633Z,3.80
2023-08-13T15:48:19.311Z,4.90
2023-08-13T15:50:47.096Z,5.00
2023-08-13T15:53:14.774Z,7.60
2023-08-13T15:55:43.063Z,4.60
2023-08-13T15:58:11.387Z,3.80
2023-08-13T16:00:39.698Z,6.50
2023-08-13T16:03:07.669Z,5.30
2023-08-13T16:05:35.613Z,4.70
2023-08-13T16:08:05.658Z,4.30
2023-08-13T16:10:36.266Z,5.20
2023-08-13T16:13:05.421Z,6.10
2023-08-13T16:15:33.346Z,5.50
2023-08-13T16:18:01.094Z,5.60
2023-08-13T16:20:28.904Z,5.10
2023-08-13T16:22:56.521Z,6.20
2023-08-13T16:25:24.485Z,4.50
2023-08-13T16:27:52.115Z,6.10
2023-08-13T16:30:19.704Z,4.30
2023-08-13T16:32:47.353Z,5.80
2023-08-13T16:35:14.977Z,5.60
2023-08-13T16:37:42.547Z,3.90
2023-08-13T16:40:10.375Z,5.40
2023-08-13T16:42:50.575Z,4.60
2023-08-13T16:45:22.713Z,5.60
2023-08-13T16:47:50.446Z,5.80
2023-08-13T16:50:18.219Z,6.30
2023-08-13T16:52:45.812Z,5.80
2023-08-13T16:55:13.440Z,6.00
2023-08-13T16:57:41.005Z,5.40
2023-08-13T17:00:13.809Z,4.80
2023-08-13T17:02:47.662Z,8.00
2023-08-13T17:05:15.893Z,4.90
2023-08-13T17:07:43.505Z,4.70
2023-08-13T17:10:14.375Z,6.40
2023-08-13T17:12:42.477Z,5.00
2023-08-13T17:15:23.079Z,7.20
2023-08-13T17:17:55.963Z,5.20
2023-08-13T17:20:24.428Z,5.70
2023-08-13T17:22:52.470Z,7.70
2023-08-13T17:25:20.580Z,6.00
2023-08-13T17:27:48.404Z,8.70
2023-08-13T17:30:16.499Z,6.70
2023-08-13T17:32:44.220Z,8.40
2023-08-13T17:35:11.894Z,9.90
2023-08-13T17:37:41.199Z,10.80
2023-08-13T17:40:09.525Z,13.90
2023-08-13T17:42:37.210Z,10.00
2023-08-13T17:45:05.260Z,10.50
2023-08-13T17:47:32.905Z,9.80
2023-08-13T17:50:00.537Z,9.00
2023-08-13T17:52:31.308Z,8.10
2023-08-13T17:54:58.909Z,7.40
2023-08-13T17:57:26.500Z,8.00
2023-08-13T17:59:54.355Z,8.20
2023-08-13T18:02:39.761Z,7.70
2023-08-13T18:05:07.772Z,8.30
2023-08-13T18:07:35.359Z,7.00
2023-08-13T18:10:03.006Z,6.60
2023-08-13T18:12:30.554Z,6.10
2023-08-13T18:14:58.114Z,9.40
2023-08-13T18:17:25.764Z,6.00
2023-08-13T18:19:54.190Z,8.70
2023-08-13T18:22:22.648Z,6.50
2023-08-13T18:24:50.358Z,6.20
2023-08-13T18:27:18.114Z,5.00
2023-08-13T18:29:45.860Z,6.90
2023-08-13T18:32:13.650Z,5.90
2023-08-13T18:34:41.334Z,5.40
2023-08-13T18:37:08.882Z,5.70
2023-08-13T18:39:36.562Z,7.30
2023-08-13T18:42:04.171Z,6.50
2023-08-13T18:44:31.768Z,8.00
2023-08-13T18:46:59.603Z,6.40
2023-08-13T18:49:27.179Z,6.50
2023-08-13T18:51:54.798Z,5.90
2023-08-13T18:54:22.438Z,6.60
2023-08-13T18:56:50.170Z,5.90
2023-08-13T18:59:17.796Z,6.00
2023-08-13T19:01:45.995Z,6.40
2023-08-13T19:04:13.786Z,6.20
2023-08-13T19:06:41.380Z,5.90
2023-08-13T19:09:08.972Z,6.60
2023-08-13T19:11:36.524Z,5.50
2023-08-13T19:14:11.073Z,6.20
2023-08-13T19:16:39.064Z,6.80
2023-08-13T19:19:06.919Z,6.30
2023-08-13T19:21:34.551Z,6.80
2023-08-13T19:24:02.119Z,7.20
2023-08-13T19:26:29.770Z,7.00
2023-08-13T19:28:57.412Z,6.10
2023-08-13T19:31:25.052Z,7.20
2023-08-13T19:33:52.664Z,7.90
2023-08-13T19:36:20.262Z,6.70
2023-08-13T19:38:48.037Z,5.60
2023-08-13T19:41:15.714Z,5.30
2023-08-13T19:43:44.418Z,6.10
2023-08-13T19:46:12.004Z,8.30
2023-08-13T19:48:39.965Z,6.20
2023-08-13T19:51:07.914Z,6.50
2023-08-13T19:53:35.505Z,5.90
2023-08-13T19:56:03.108Z,5.90
2023-08-13T19:58:30.705Z,5.20
2023-08-13T20:01:01.522Z,5.40
2023-08-13T20:03:29.392Z,5.30
2023-08-13T20:05:57.122Z,5.40
2023-08-13T20:08:27.464Z,5.60
2023-08-13T20:10:55.187Z,6.10
2023-08-13T20:13:22.826Z,5.10
2023-08-13T20:15:50.512Z,5.20
2023-08-13T20:18:18.880Z,5.20
2023-08-13T20:20:55.302Z,5.60
2023-08-13T20:23:23.137Z,7.30
2023-08-13T20:25:50.933Z,6.30
2023-08-13T20:28:18.588Z,7.00
2023-08-13T20:30:46.829Z,5.50
2023-08-13T20:33:14.431Z,5.60
2023-08-13T20:35:42.005Z,6.90
2023-08-13T20:38:09.590Z,6.30
2023-08-13T20:40:37.155Z,8.90
2023-08-13T20:43:05.097Z,8.10
2023-08-13T20:45:35.285Z,7.70
2023-08-13T20:48:04.121Z,7.90
2023-08-13T20:50:31.880Z,8.30
2023-08-13T20:52:59.604Z,9.90
2023-08-13T20:55:27.394Z,16.40
2023-08-13T20:57:54.990Z,10.80
2023-08-13T21:00:23.488Z,11.40
2023-08-13T21:04:45.807Z,9.70
2023-08-13T21:07:13.967Z,8.20
2023-08-13T21:09:41.823Z,7.80
2023-08-13T21:12:09.650Z,10.10
2023-08-13T21:14:39.166Z,10.50
2023-08-13T21:17:07.987Z,9.20
2023-08-13T21:19:35.997Z,9.10
2023-08-13T21:22:04.368Z,9.50
2023-08-13T21:24:31.925Z,8.40
2023-08-13T21:26:59.567Z,9.10
2023-08-13T21:29:27.160Z,9.80
2023-08-13T21:31:55.597Z,8.40
2023-08-13T21:34:23.276Z,6.90
2023-08-13T21:36:51.092Z,8.90
2023-08-13T21:39:18.846Z,8.30
2023-08-13T21:41:48.008Z,7.00
2023-08-13T21:44:15.620Z,7.10
2023-08-13T21:46:43.760Z,6.50
2023-08-13T21:49:11.880Z,7.20
2023-08-13T21:51:39.866Z,8.10
2023-08-13T21:54:07.449Z,7.70
2023-08-13T21:56:35.050Z,6.40
2023-08-13T21:59:02.631Z,6.50
2023-08-13T22:01:30.337Z,7.80
2023-08-13T22:03:58.225Z,7.40
2023-08-13T22:06:26.202Z,8.40
2023-08-13T22:08:54.390Z,9.40
2023-08-13T22:11:22.196Z,7.60
2023-08-13T22:13:49.991Z,7.60
2023-08-13T22:16:17.694Z,7.70
2023-08-13T22:18:45.603Z,7.90
2023-08-13T22:21:13.456Z,6.90
2023-08-13T22:23:41.226Z,7.80
2023-08-13T22:26:18.037Z,6.70
2023-08-13T22:28:47.520Z,10.30
2023-08-13T22:31:15.691Z,8.60
2023-08-13T22:33:43.453Z,8.80
2023-08-13T22:36:11.266Z,8.50
2023-08-13T22:38:38.919Z,8.50
2023-08-13T22:41:06.665Z,6.50
2023-08-13T22:43:34.415Z,12.90
2023-08-13T22:46:02.197Z,9.60
2023-08-13T22:48:30.236Z,6.90
2023-08-13T22:50:58.095Z,9.00
2023-08-13T22:53:25.876Z,7.10
2023-08-13T22:55:53.579Z,6.50
2023-08-13T22:58:21.436Z,8.90
2023-08-13T23:00:49.184Z,10.60
2023-08-13T23:03:17.034Z,9.80
2023-08-13T23:05:44.786Z,8.50
2023-08-13T23:08:13.187Z,7.80
2023-08-13T23:10:42.053Z,8.20
2023-08-13T23:13:09.818Z,7.80
2023-08-13T23:15:37.584Z,9.60
2023-08-13T23:18:05.845Z,7.10
2023-08-13T23:20:33.535Z,8.20
2023-08-13T23:23:02.315Z,7.30
2023-08-13T23:25:29.970Z,8.50
2023-08-13T23:27:58.011Z,9.70
2023-08-13T23:30:26.681Z,6.70
2023-08-13T23:32:54.463Z,7.20
2023-08-13T23:35:22.280Z,7.50
2023-08-13T23:37:50.125Z,7.00
2023-08-13T23:40:18.354Z,7.50
2023-08-13T23:42:46.063Z,8.10
2023-08-13T23:45:13.868Z,8.00
2023-08-13T23:47:41.560Z,9.10
2023-08-13T23:50:10.488Z,6.90
2023-08-13T23:52:38.198Z,7.40
2023-08-13T23:55:07.104Z,7.10
2023-08-13T23:57:34.804Z,8.50
